Home > Products > Valid Products > MTR

000
SAUS43 KBIS 260053
MTRN60
METAR KN60 260052Z AUTO 07005KT 16/13 A2977 RMK AO1 SLP080 T01560133





000
SAUS43 KBIS 252354
MTRN60
METAR KN60 252352Z AUTO 29008KT 16/13 A2975 RMK AO1 SLP073 60001
T01560133 10189 20150 58003





000
SAUS43 KBIS 251653
MTRN60
METAR KN60 251652Z AUTO 07005KT 16/13 A2980 RMK AO1 SLP090 T01560133





000
SAUS43 KBIS 251554
MTRN60
METAR KN60 251552Z AUTO 08005KT 15/13 A2981 RMK AO1 SLP092 T01500128





000
SAUS43 KBIS 251154
MTRN60
METAR KN60 251152Z AUTO 06005KT 13/12 A2983 RMK AO1 SLP099 P0010
60031 70031 T01330122 10172 20133 50000





000
SAUS43 KBIS 250854
MTRN60
METAR KN60 250852Z AUTO 05006KT 14/11 A2984 RMK AO1 SLP098 60012
T01440106 57016





000
SAUS43 KBIS 250554
MTRN60
METAR KN60 250552Z AUTO 27006KT 18/08 A2989 RMK AO1 SLP115 T01780078
10233 20150 402390044 53008





000
SAUS43 KBIS 250053
MTRN60
METAR KN60 250052Z AUTO 11003KT 23/06 A2985 RMK AO1 SLP105 T02280061





000
SAUS43 KBIS 242253
MTRN60
METAR KN60 242252Z AUTO 15006KT 23/07 A2987 RMK AO1 SLP114 T02330072





000
SAUS43 KBIS 242054
MTRN60
METAR KN60 242052Z AUTO 26010G15KT 23/07 A2989 RMK AO1 SLP120
T02330067 56004





000
SAUS43 KBIS 241853
MTRN60
METAR KN60 241852Z AUTO 24008G15KT 21/06 A2990 RMK AO1 SLP124
T02110056





000
SAUS43 KBIS 241554
MTRN60
METAR KN60 241552Z AUTO 25010KT 19/07 A2989 RMK AO1 SLP120 T01890067





000
SAUS43 KBIS 241453
MTRN60
METAR KN60 241452Z AUTO VRB04KT 17/07 A2987 RMK AO1 SLP116 T01720067
51013





000
SAUS43 KBIS 241253
MTRN60
METAR KN60 241252Z AUTO 31005KT 12/07 A2986 RMK AO1 SLP109 T01220067





000
SAUS43 KBIS 241154
MTRN60
METAR KN60 241152Z AUTO VRB03KT 08/04 A2983 RMK AO1 SLP102 T00780044
10111 20044 53012





000
SAUS43 KBIS 241053
MTRN60
METAR KN60 241052Z AUTO 32003KT 06/03 A2982 RMK AO1 SLP098 T00610033





000
SAUS43 KBIS 240854
MTRN60
METAR KN60 240852Z AUTO 00000KT 09/04 A2980 RMK AO1 SLP087 T00890044
53009





000
SAUS43 KBIS 240754
MTRN60
METAR KN60 240752Z AUTO 32005KT 09/04 A2979 RMK AO1 SLP084 T00940044





000
SAUS43 KBIS 240553
MTRN60
METAR KN60 240552Z AUTO 26005KT 11/06 A2977 RMK AO1 SLP077 T01060061
10233 20089 402560072 51020





000
SAUS43 KBIS 240454
MTRN60
METAR KN60 240452Z AUTO 00000KT 11/04 A2976 RMK AO1 SLP075 T01060039





000
SAUS43 KBIS 240354
MTRN60
METAR KN60 240352Z AUTO 33007KT 12/04 A2974 RMK AO1 SLP069 T01170044





000
SAUS43 KBIS 240153
MTRN60
METAR KN60 240152Z AUTO 30008KT 17/04 A2971 RMK AO1 PK WND
18035/0059 WSHFT 0101 SLP057 T01720039





000
SAUS43 KBIS 240122
MTRN60
SPECI KN60 240121Z AUTO 26019G25KT 17/05 A2973 RMK AO1 PK WND
18035/0059 WSHFT 0101 PRESRR T01720050





000
SAUS43 KBIS 240103
MTRN60
SPECI KN60 240102Z AUTO 18021G35KT 18/05 A2970 RMK AO1 PK WND
18035/0059 WSHFT 0042 PRESRR T01830050





000
SAUS43 KBIS 240053
MTRN60
METAR KN60 240052Z AUTO 18022G32KT 20/02 A2969 RMK AO1 PK WND
16032/0047 PRESRR SLP050 T02000022





000
SAUS43 KBIS 232354
MTRN60
METAR KN60 232352Z AUTO 27011KT 22/00 A2966 RMK AO1 SLP043 T02220000
10256 20222 50002





000
SAUS43 KBIS 231854
MTRN60
METAR KN60 231852Z AUTO 26018G24KT 24/01 A2965 RMK AO1 SLP034
T02440011





000
SAUS43 KBIS 231454
MTRN60
METAR KN60 231452Z AUTO 23004KT 17/06 A2964 RMK AO1 SLP034 T01720061
51006





000
SAUS43 KBIS 231253
MTRN60
METAR KN60 231252Z AUTO 24009KT 13/07 A2964 RMK AO1 SLP032 T01280067





000
SAUS43 KBIS 231154
MTRN60
METAR KN60 231152Z AUTO 21003KT 09/06 A2962 RMK AO1 SLP028 T00890056
10161 20072 50004





000
SAUS43 KBIS 231053
MTRN60
METAR KN60 231052Z AUTO 17005KT 09/05 A2963 RMK AO1 SLP028 T00890050





    US Dept of Commerce
    National Oceanic and Atmospheric Administration
    National Weather Service
    1325 East West Highway
    Silver Spring, MD 20910
    Page Author: NWS Internet Services Team
Disclaimer
Information Quality
Credits
Glossary
Privacy Policy
Freedom of Information Act (FOIA)
About Us
Career Opportunities